Time,TemperatureF,DewpointF,PressureIn,WindDirection,WindDirectionDegrees,WindSpeedMPH,WindSpeedGustMPH,Humidity,HourlyPrecipIn,Conditions,Clouds,dailyrainin,SoftwareType,DateUTC
2013-02-01 06:52:00,20.9,5.6,28.08,WNW,292,16.0,33.0,51,0.00,,,0.00,Weather View 32 v70,2013-02-01 11:52:00,
2013-02-01 06:53:00,20.7,6.3,28.08,WNW,292,23.0,33.0,53,0.00,,,0.00,Weather View 32 v70,2013-02-01 11:53:00,
2013-02-01 06:54:00,20.7,5.4,28.08,WNW,292,23.0,35.0,51,0.00,,,0.00,Weather View 32 v70,2013-02-01 11:54:00,
2013-02-01 07:14:00,20.7,5.4,28.08,WNW,292,21.0,35.0,51,0.00,,,0.00,Weather View 32 v70,2013-02-01 12:14:00,
2013-02-01 08:53:00,16.6,5.1,28.20,WNW,292,19.0,32.0,60,0.00,,,0.00,Weather View 32 v70,2013-02-01 13:53:00,
2013-02-01 08:54:00,16.6,5.9,28.20,West,270,21.0,32.0,62,0.00,,,0.00,Weather View 32 v70,2013-02-01 13:54:00,
2013-02-01 08:55:00,16.4,7.0,28.20,WNW,292,24.0,32.0,66,0.00,,,0.00,Weather View 32 v70,2013-02-01 13:55:00,
2013-02-01 09:20:00,16.4,7.0,28.20,WNW,292,22.0,32.0,66,0.00,,,0.00,Weather View 32 v70,2013-02-01 14:20:00,
2013-02-01 09:25:00,16.9,3.1,28.22,WNW,292,22.0,33.0,54,0.00,,,0.00,Weather View 32 v70,2013-02-01 14:25:00,
2013-02-01 09:30:00,16.9,1.5,28.22,NW,315,13.0,33.0,50,0.00,,,0.00,Weather View 32 v70,2013-02-01 14:30:00,
2013-02-01 09:35:00,16.8,2.2,28.22,WSW,247,12.0,35.0,52,0.00,,,0.00,Weather View 32 v70,2013-02-01 14:35:00,
2013-02-01 09:40:00,16.9,2.7,28.22,North,360,18.0,35.0,53,0.00,,,0.00,Weather View 32 v70,2013-02-01 14:40:00,
2013-02-01 09:45:00,16.9,2.3,28.23,WNW,292,10.0,35.0,52,0.00,,,0.00,Weather View 32 v70,2013-02-01 14:45:00,
2013-02-01 09:50:00,16.9,2.7,28.24,NW,315,13.0,35.0,53,0.00,,,0.00,Weather View 32 v70,2013-02-01 14:50:00,
2013-02-01 09:55:00,17.2,2.2,28.23,NW,315,15.0,35.0,51,0.00,,,0.00,Weather View 32 v70,2013-02-01 14:55:00,
2013-02-01 10:00:00,17.3,1.0,28.24,WNW,292,18.0,35.0,48,0.00,,,0.00,Weather View 32 v70,2013-02-01 15:00:00,
2013-02-01 10:05:00,17.3,-0.4,28.24,WNW,292,22.0,35.0,45,0.00,,,0.00,Weather View 32 v70,2013-02-01 15:05:00,
2013-02-01 10:10:00,17.2,0.0,28.24,WNW,292,18.0,35.0,46,0.00,,,0.00,Weather View 32 v70,2013-02-01 15:10:00,
2013-02-01 10:15:00,17.3,0.1,28.24,NW,315,13.0,35.0,46,0.00,,,0.00,Weather View 32 v70,2013-02-01 15:15:00,
2013-02-01 10:20:00,17.9,4.1,28.24,West,270,7.0,35.0,54,0.00,,,0.00,Weather View 32 v70,2013-02-01 15:20:00,
2013-02-01 10:25:00,17.9,4.1,28.24,WNW,292,17.0,35.0,54,0.00,,,0.00,Weather View 32 v70,2013-02-01 15:25:00,
2013-02-01 10:30:00,17.7,3.9,28.24,West,270,13.0,35.0,54,0.00,,,0.00,Weather View 32 v70,2013-02-01 15:30:00,
2013-02-01 10:35:00,17.6,2.1,28.25,NW,315,14.0,34.0,50,0.00,,,0.00,Weather View 32 v70,2013-02-01 15:35:00,
2013-02-01 10:40:00,17.6,1.2,28.24,NNW,337,17.0,34.0,48,0.00,,,0.00,Weather View 32 v70,2013-02-01 15:40:00,
2013-02-01 10:45:00,17.7,0.4,28.24,NNW,337,14.0,33.0,46,0.00,,,0.00,Weather View 32 v70,2013-02-01 15:45:00,
2013-02-01 10:50:00,17.9,2.4,28.25,North,360,13.0,33.0,50,0.00,,,0.00,Weather View 32 v70,2013-02-01 15:50:00,
2013-02-01 10:55:00,18.4,1.5,28.26,WNW,292,11.0,33.0,47,0.00,,,0.00,Weather View 32 v70,2013-02-01 15:55:00,
2013-02-01 11:00:00,18.4,1.5,28.26,NW,315,22.0,33.0,47,0.00,,,0.00,Weather View 32 v70,2013-02-01 16:00:00,
2013-02-01 11:05:00,18.3,1.4,28.26,NW,315,17.0,33.0,47,0.00,,,0.00,Weather View 32 v70,2013-02-01 16:05:00,
2013-02-01 11:10:00,18.9,2.4,28.26,NW,315,17.0,33.0,48,0.00,,,0.00,Weather View 32 v70,2013-02-01 16:10:00,
2013-02-01 11:15:00,19.2,1.8,28.26,WNW,292,22.0,33.0,46,0.00,,,0.00,Weather View 32 v70,2013-02-01 16:15:00,
2013-02-01 11:20:00,19.1,1.2,28.27,WNW,292,16.0,34.0,45,0.00,,,0.00,Weather View 32 v70,2013-02-01 16:20:00,
2013-02-01 11:25:00,19.7,2.7,28.27,NW,315,9.0,34.0,47,0.00,,,0.00,Weather View 32 v70,2013-02-01 16:25:00,
2013-02-01 11:30:00,19.7,1.8,28.28,NW,315,15.0,34.0,45,0.00,,,0.00,Weather View 32 v70,2013-02-01 16:30:00,
2013-02-01 11:35:00,19.6,2.6,28.28,WNW,292,14.0,34.0,47,0.00,,,0.00,Weather View 32 v70,2013-02-01 16:35:00,
2013-02-01 11:40:00,19.5,0.1,28.28,NW,315,16.0,34.0,42,0.00,,,0.00,Weather View 32 v70,2013-02-01 16:40:00,
2013-02-01 11:45:00,19.6,2.2,28.27,North,360,10.0,34.0,46,0.00,,,0.00,Weather View 32 v70,2013-02-01 16:45:00,
2013-02-01 11:50:00,19.7,0.8,28.28,NW,315,21.0,34.0,43,0.00,,,0.00,Weather View 32 v70,2013-02-01 16:50:00,
2013-02-01 11:55:00,19.4,0.5,28.28,WNW,292,9.0,34.0,43,0.00,,,0.00,Weather View 32 v70,2013-02-01 16:55:00,
2013-02-01 12:00:00,20.0,2.1,28.28,NW,315,4.0,34.0,45,0.00,,,0.00,Weather View 32 v70,2013-02-01 17:00:00,
2013-02-01 12:06:00,20.4,3.4,28.29,NW,315,12.0,34.0,47,0.00,,,0.00,Weather View 32 v70,2013-02-01 17:06:00,
2013-02-01 12:11:00,20.7,2.7,28.29,NW,315,12.0,34.0,45,0.00,,,0.00,Weather View 32 v70,2013-02-01 17:11:00,
2013-02-01 12:16:00,20.4,2.9,28.29,West,270,7.0,34.0,46,0.00,,,0.00,Weather View 32 v70,2013-02-01 17:16:00,
2013-02-01 12:21:00,20.6,1.1,28.29,NW,315,9.0,31.0,42,0.00,,,0.00,Weather View 32 v70,2013-02-01 17:21:00,
2013-02-01 12:26:00,20.9,2.4,28.29,West,270,14.0,31.0,44,0.00,,,0.00,Weather View 32 v70,2013-02-01 17:26:00,
2013-02-01 12:31:00,20.9,1.9,28.29,WNW,292,16.0,31.0,43,0.00,,,0.00,Weather View 32 v70,2013-02-01 17:31:00,
2013-02-01 12:36:00,20.8,2.3,28.29,NW,315,14.0,31.0,44,0.00,,,0.00,Weather View 32 v70,2013-02-01 17:36:00,
2013-02-01 12:41:00,21.2,4.1,28.29,NW,315,5.0,31.0,47,0.00,,,0.00,Weather View 32 v70,2013-02-01 17:41:00,
2013-02-01 12:46:00,21.4,2.9,28.28,WNW,292,11.0,31.0,44,0.00,,,0.00,Weather View 32 v70,2013-02-01 17:46:00,
2013-02-01 12:51:00,21.5,3.9,28.28,WNW,292,12.0,31.0,46,0.00,,,0.00,Weather View 32 v70,2013-02-01 17:51:00,
2013-02-01 12:56:00,21.2,3.6,28.28,West,270,14.0,27.0,46,0.00,,,0.00,Weather View 32 v70,2013-02-01 17:56:00,
2013-02-01 13:01:00,21.1,4.0,28.28,West,270,9.0,27.0,47,0.00,,,0.00,Weather View 32 v70,2013-02-01 18:01:00,
2013-02-01 13:06:00,21.4,3.3,28.29,WNW,292,19.0,27.0,45,0.00,,,0.00,Weather View 32 v70,2013-02-01 18:06:00,
2013-02-01 13:11:00,21.7,5.0,28.27,WNW,292,19.0,27.0,48,0.00,,,0.00,Weather View 32 v70,2013-02-01 18:11:00,
2013-02-01 13:16:00,21.7,4.6,28.28,NW,315,7.0,27.0,47,0.00,,,0.00,Weather View 32 v70,2013-02-01 18:16:00,
2013-02-01 13:21:00,21.6,2.5,28.28,NW,315,10.0,27.0,43,0.00,,,0.00,Weather View 32 v70,2013-02-01 18:21:00,
2013-02-01 13:26:00,21.9,4.3,28.28,NW,315,13.0,27.0,46,0.00,,,0.00,Weather View 32 v70,2013-02-01 18:26:00,
2013-02-01 13:31:00,21.9,4.3,28.28,West,270,12.0,27.0,46,0.00,,,0.00,Weather View 32 v70,2013-02-01 18:31:00,
2013-02-01 13:36:00,21.9,3.3,28.28,WNW,292,11.0,27.0,44,0.00,,,0.00,Weather View 32 v70,2013-02-01 18:36:00,
2013-02-01 13:41:00,21.8,3.2,28.28,West,270,14.0,27.0,44,0.00,,,0.00,Weather View 32 v70,2013-02-01 18:41:00,
2013-02-01 13:46:00,22.2,3.6,28.28,NW,315,11.0,27.0,44,0.00,,,0.00,Weather View 32 v70,2013-02-01 18:46:00,
2013-02-01 13:51:00,22.2,4.1,28.27,WNW,292,17.0,27.0,45,0.00,,,0.00,Weather View 32 v70,2013-02-01 18:51:00,
2013-02-01 13:56:00,22.2,3.1,28.28,NW,315,7.0,22.0,43,0.00,,,0.00,Weather View 32 v70,2013-02-01 18:56:00,
2013-02-01 14:01:00,22.2,2.6,28.28,NW,315,10.0,22.0,42,0.00,,,0.00,Weather View 32 v70,2013-02-01 19:01:00,
2013-02-01 14:06:00,21.9,1.3,28.28,West,270,8.0,22.0,40,0.00,,,0.00,Weather View 32 v70,2013-02-01 19:06:00,
2013-02-01 14:11:00,21.9,2.3,28.29,North,360,14.0,22.0,42,0.00,,,0.00,Weather View 32 v70,2013-02-01 19:11:00,
2013-02-01 14:16:00,22.3,2.7,28.29,NW,315,9.0,21.0,42,0.00,,,0.00,Weather View 32 v70,2013-02-01 19:16:00,
2013-02-01 14:21:00,22.5,3.9,28.29,NW,315,12.0,21.0,44,0.00,,,0.00,Weather View 32 v70,2013-02-01 19:21:00,
2013-02-01 14:26:00,22.1,2.0,28.29,NW,315,12.0,24.0,41,0.00,,,0.00,Weather View 32 v70,2013-02-01 19:26:00,
2013-02-01 14:31:00,21.7,1.1,28.29,NNW,337,11.0,24.0,40,0.00,,,0.00,Weather View 32 v70,2013-02-01 19:31:00,
2013-02-01 14:36:00,21.7,3.1,28.29,West,270,11.0,24.0,44,0.00,,,0.00,Weather View 32 v70,2013-02-01 19:36:00,
2013-02-01 14:41:00,22.2,4.6,28.29,NW,315,13.0,24.0,46,0.00,,,0.00,Weather View 32 v70,2013-02-01 19:41:00,
2013-02-01 14:46:00,22.1,3.5,28.30,WNW,292,11.0,24.0,44,0.00,,,0.00,Weather View 32 v70,2013-02-01 19:46:00,
2013-02-01 14:51:00,22.1,3.5,28.30,NW,315,12.0,24.0,44,0.00,,,0.00,Weather View 32 v70,2013-02-01 19:51:00,
2013-02-01 14:56:00,21.7,3.6,28.30,WNW,292,18.0,26.0,45,0.00,,,0.00,Weather View 32 v70,2013-02-01 19:56:00,
2013-02-01 15:01:00,21.8,3.2,28.30,WNW,292,16.0,27.0,44,0.00,,,0.00,Weather View 32 v70,2013-02-01 20:01:00,
2013-02-01 15:06:00,21.6,3.5,28.30,West,270,19.0,27.0,45,0.00,,,0.00,Weather View 32 v70,2013-02-01 20:06:00,
2013-02-01 15:11:00,21.3,3.3,28.30,WNW,292,16.0,27.0,45,0.00,,,0.00,Weather View 32 v70,2013-02-01 20:11:00,
2013-02-01 15:16:00,21.2,3.6,28.32,NW,315,19.0,27.0,46,0.00,,,0.00,Weather View 32 v70,2013-02-01 20:16:00,
2013-02-01 15:21:00,21.2,2.7,28.32,NW,315,12.0,27.0,44,0.00,,,0.00,Weather View 32 v70,2013-02-01 20:21:00,
2013-02-01 15:26:00,21.4,2.9,28.32,WNW,292,25.0,27.0,44,0.00,,,0.00,Weather View 32 v70,2013-02-01 20:26:00,
2013-02-01 15:31:00,21.0,2.0,28.32,WNW,292,18.0,27.0,43,0.00,,,0.00,Weather View 32 v70,2013-02-01 20:31:00,
2013-02-01 15:36:00,20.9,2.9,28.33,WNW,292,15.0,27.0,45,0.00,,,0.00,Weather View 32 v70,2013-02-01 20:36:00,
2013-02-01 15:41:00,20.8,2.3,28.33,WNW,292,9.0,27.0,44,0.00,,,0.00,Weather View 32 v70,2013-02-01 20:41:00,
2013-02-01 15:46:00,20.6,2.6,28.33,WNW,292,27.0,27.0,45,0.00,,,0.00,Weather View 32 v70,2013-02-01 20:46:00,
2013-02-01 15:51:00,20.2,2.2,28.33,West,270,14.0,28.0,45,0.00,,,0.00,Weather View 32 v70,2013-02-01 20:51:00,
2013-02-01 15:56:00,20.2,2.2,28.33,NW,315,12.0,28.0,45,0.00,,,0.00,Weather View 32 v70,2013-02-01 20:56:00,
2013-02-01 16:01:00,20.1,1.7,28.34,West,270,11.0,28.0,44,0.00,,,0.00,Weather View 32 v70,2013-02-01 21:01:00,
2013-02-01 16:06:00,20.1,2.2,28.34,NW,315,14.0,28.0,45,0.00,,,0.00,Weather View 32 v70,2013-02-01 21:06:00,
2013-02-01 16:11:00,20.1,1.7,28.34,NW,315,9.0,28.0,44,0.00,,,0.00,Weather View 32 v70,2013-02-01 21:11:00,
2013-02-01 16:16:00,20.3,2.8,28.35,West,270,12.0,28.0,46,0.00,,,0.00,Weather View 32 v70,2013-02-01 21:16:00,
2013-02-01 16:21:00,20.1,2.2,28.35,NW,315,9.0,28.0,45,0.00,,,0.00,Weather View 32 v70,2013-02-01 21:21:00,
2013-02-01 16:26:00,20.0,3.0,28.35,West,270,10.0,28.0,47,0.01,,,0.01,Weather View 32 v70,2013-02-01 21:26:00,
2013-02-01 16:31:00,20.0,3.5,28.35,West,270,9.0,28.0,48,0.01,,,0.01,Weather View 32 v70,2013-02-01 21:31:00,
2013-02-01 16:36:00,19.5,1.6,28.35,West,270,11.0,28.0,45,0.01,,,0.01,Weather View 32 v70,2013-02-01 21:36:00,
2013-02-01 16:41:00,19.4,2.5,28.35,WNW,292,15.0,28.0,47,0.01,,,0.01,Weather View 32 v70,2013-02-01 21:41:00,
2013-02-01 16:47:00,19.1,1.7,28.35,West,270,14.0,28.0,46,0.01,,,0.01,Weather View 32 v70,2013-02-01 21:47:00,
2013-02-01 16:52:00,19.1,2.6,28.36,WNW,292,12.0,26.0,48,0.01,,,0.01,Weather View 32 v70,2013-02-01 21:52:00,
2013-02-01 16:57:00,18.9,2.4,28.36,WNW,292,9.0,26.0,48,0.01,,,0.01,Weather View 32 v70,2013-02-01 21:57:00,
2013-02-01 17:02:00,18.9,2.0,28.37,NW,315,4.0,22.0,47,0.01,,,0.01,Weather View 32 v70,2013-02-01 22:02:00,
2013-02-01 18:26:00,15.6,1.9,28.40,West,270,4.0,10.0,54,0.00,,,0.01,Weather View 32 v70,2013-02-01 23:26:00,
2013-02-01 18:27:00,15.6,1.9,28.40,West,270,4.0,10.0,54,0.00,,,0.01,Weather View 32 v70,2013-02-01 23:27:00,
2013-02-01 18:28:00,15.7,2.4,28.40,West,270,5.0,10.0,55,0.00,,,0.01,Weather View 32 v70,2013-02-01 23:28:00,
2013-02-01 18:54:00,15.6,2.3,28.40,West,270,6.0,10.0,55,0.00,,,0.01,Weather View 32 v70,2013-02-01 23:54:00,
2013-02-01 18:59:00,15.3,2.0,28.40,WNW,292,9.0,13.0,55,0.00,,,0.01,Weather View 32 v70,2013-02-01 23:59:00,
2013-02-01 19:04:00,15.3,2.0,28.40,West,270,4.0,13.0,55,0.00,,,0.01,Weather View 32 v70,2013-02-02 00:04:00,
2013-02-01 19:09:00,14.9,2.0,28.41,WSW,247,3.0,13.0,56,0.00,,,0.01,Weather View 32 v70,2013-02-02 00:09:00,
2013-02-01 19:14:00,14.7,1.9,28.41,West,270,4.0,13.0,56,0.00,,,0.01,Weather View 32 v70,2013-02-02 00:14:00,
2013-02-01 19:19:00,14.7,1.9,28.41,West,270,6.0,13.0,56,0.00,,,0.01,Weather View 32 v70,2013-02-02 00:19:00,
2013-02-01 19:24:00,14.6,2.1,28.42,West,270,5.0,13.0,57,0.00,,,0.01,Weather View 32 v70,2013-02-02 00:24:00,
2013-02-01 19:29:00,14.6,2.1,28.41,West,270,3.0,13.0,57,0.00,,,0.01,Weather View 32 v70,2013-02-02 00:29:00,
2013-02-01 19:34:00,14.5,2.0,28.42,WSW,247,6.0,13.0,57,0.00,,,0.01,Weather View 32 v70,2013-02-02 00:34:00,
2013-02-01 19:39:00,14.6,1.4,28.42,SW,225,8.0,13.0,55,0.00,,,0.01,Weather View 32 v70,2013-02-02 00:39:00,
2013-02-01 19:44:00,14.4,1.6,28.42,WSW,247,3.0,11.0,56,0.00,,,0.01,Weather View 32 v70,2013-02-02 00:44:00,
2013-02-01 19:49:00,14.3,1.9,28.42,WSW,247,6.0,11.0,57,0.00,,,0.01,Weather View 32 v70,2013-02-02 00:49:00,
2013-02-01 19:54:00,14.3,1.1,28.42,West,270,2.0,11.0,55,0.00,,,0.01,Weather View 32 v70,2013-02-02 00:54:00,
2013-02-01 19:59:00,14.3,1.1,28.42,WSW,247,3.0,11.0,55,0.00,,,0.01,Weather View 32 v70,2013-02-02 00:59:00,
2013-02-01 20:04:00,13.9,1.5,28.42,West,270,5.0,11.0,57,0.00,,,0.01,Weather View 32 v70,2013-02-02 01:04:00,
2013-02-01 20:09:00,13.8,1.8,28.42,West,270,5.0,11.0,58,0.00,,,0.01,Weather View 32 v70,2013-02-02 01:09:00,
2013-02-01 20:14:00,13.8,1.8,28.42,West,270,6.0,11.0,58,0.00,,,0.01,Weather View 32 v70,2013-02-02 01:14:00,
2013-02-01 20:19:00,13.9,1.5,28.42,WSW,247,4.0,11.0,57,0.00,,,0.01,Weather View 32 v70,2013-02-02 01:19:00,
2013-02-01 20:24:00,13.7,1.3,28.42,WNW,292,0.0,11.0,57,0.00,,,0.01,Weather View 32 v70,2013-02-02 01:24:00,
2013-02-01 20:29:00,13.5,1.1,28.42,South,180,4.0,11.0,57,0.00,,,0.01,Weather View 32 v70,2013-02-02 01:29:00,
2013-02-01 20:34:00,13.4,1.4,28.42,SSW,202,2.0,11.0,58,0.00,,,0.01,Weather View 32 v70,2013-02-02 01:34:00,
2013-02-01 20:39:00,13.2,1.2,28.42,WSW,247,2.0,11.0,58,0.00,,,0.01,Weather View 32 v70,2013-02-02 01:39:00,
2013-02-01 20:44:00,13.2,1.2,28.42,SW,225,4.0,11.0,58,0.00,,,0.01,Weather View 32 v70,2013-02-02 01:44:00,
2013-02-01 20:49:00,13.3,0.9,28.42,West,270,3.0,11.0,57,0.00,,,0.01,Weather View 32 v70,2013-02-02 01:49:00,
2013-02-01 20:54:00,13.5,1.5,28.43,SW,225,6.0,11.0,58,0.00,,,0.01,Weather View 32 v70,2013-02-02 01:54:00,
2013-02-01 20:59:00,13.5,1.5,28.43,West,270,6.0,11.0,58,0.00,,,0.01,Weather View 32 v70,2013-02-02 01:59:00,
2013-02-01 21:04:00,13.5,1.8,28.43,SW,225,8.0,11.0,59,0.00,,,0.01,Weather View 32 v70,2013-02-02 02:04:00,
2013-02-01 21:09:00,13.5,2.2,28.43,West,270,7.0,11.0,60,0.00,,,0.01,Weather View 32 v70,2013-02-02 02:09:00,
2013-02-01 21:14:00,13.5,2.6,28.43,WNW,292,8.0,11.0,61,0.00,,,0.01,Weather View 32 v70,2013-02-02 02:14:00,
2013-02-01 21:19:00,13.6,2.3,28.43,West,270,6.0,12.0,60,0.00,,,0.01,Weather View 32 v70,2013-02-02 02:19:00,
2013-02-01 21:24:00,13.8,2.1,28.43,West,270,16.0,16.0,59,0.00,,,0.01,Weather View 32 v70,2013-02-02 02:24:00,
2013-02-01 21:29:00,14.1,2.0,28.43,WNW,292,10.0,16.0,58,0.00,,,0.01,Weather View 32 v70,2013-02-02 02:29:00,
2013-02-01 21:34:00,14.1,2.0,28.44,West,270,10.0,16.0,58,0.00,,,0.01,Weather View 32 v70,2013-02-02 02:34:00,
2013-02-01 21:39:00,14.2,1.8,28.44,West,270,8.0,16.0,57,0.00,,,0.01,Weather View 32 v70,2013-02-02 02:39:00,
2013-02-01 21:44:00,14.2,1.4,28.44,WNW,292,6.0,16.0,56,0.00,,,0.01,Weather View 32 v70,2013-02-02 02:44:00,
2013-02-01 21:49:00,14.2,1.8,28.44,West,270,7.0,16.0,57,0.00,,,0.01,Weather View 32 v70,2013-02-02 02:49:00,
2013-02-01 21:54:00,14.1,2.0,28.44,West,270,5.0,16.0,58,0.00,,,0.01,Weather View 32 v70,2013-02-02 02:54:00,
2013-02-01 21:59:00,13.9,1.5,28.44,West,270,4.0,16.0,57,0.00,,,0.01,Weather View 32 v70,2013-02-02 02:59:00,